Time;durP1;ratioP1;P1;durP2;ratioP2;P2;SDS_P1;SDS_P2;PMS_P1;PMS_P2;Temp;Humidity;BMP_temperature;BMP_pressure;BME280_temperature;BME280_humidity;BME280_pressure;Samples;Min_cycle;Max_cycle;Signal;HPM_P1;HPM_P2
2024/03/04 00:00:24;;;;;;;26.00;11.80;;;;;;;11.53;49.30;101694.91;110437;1255;22322;-55
2024/03/04 00:02:52;;;;;;;32.60;13.00;;;;;;;11.52;48.89;101699.80;110505;1256;22288;-55
2024/03/04 00:05:19;;;;;;;32.80;11.90;;;;;;;11.49;48.60;101695.84;110452;1255;22121;-55
2024/03/04 00:07:47;;;;;;;33.60;12.80;;;;;;;11.45;48.51;101695.70;110427;1268;22355;-55
2024/03/04 00:10:15;;;;;;;29.80;11.80;;;;;;;11.43;48.49;101697.80;110182;1258;22354;-55
2024/03/04 00:12:44;;;;;;;29.20;12.60;;;;;;;11.40;48.54;101697.83;109644;1268;1003264;-55
2024/03/04 00:15:13;;;;;;;25.90;13.10;;;;;;;11.38;48.55;101701.15;110451;1257;22173;-55
2024/03/04 00:17:41;;;;;;;22.00;13.00;;;;;;;11.35;48.52;101704.81;110417;1255;22281;-56
2024/03/04 00:20:10;;;;;;;22.30;12.80;;;;;;;11.32;48.45;101703.46;109705;1275;1002833;-55
2024/03/04 00:22:38;;;;;;;22.10;13.20;;;;;;;11.30;48.37;101701.22;110511;1252;22148;-55
2024/03/04 00:25:06;;;;;;;19.10;13.10;;;;;;;11.27;48.44;101704.90;110472;1255;22962;-55
2024/03/04 00:27:34;;;;;;;26.50;15.00;;;;;;;11.24;48.46;101708.05;110174;1260;22433;-55
2024/03/04 00:30:02;;;;;;;24.20;16.10;;;;;;;11.20;48.41;101706.19;110426;1255;22397;-55
2024/03/04 00:32:31;;;;;;;24.50;15.70;;;;;;;11.17;48.47;101707.59;110459;1255;22154;-55
2024/03/04 00:34:58;;;;;;;28.90;16.70;;;;;;;11.15;48.79;101707.98;110189;1261;22123;-56
2024/03/04 00:37:26;;;;;;;20.40;15.00;;;;;;;11.10;49.08;101708.19;110528;1255;23135;-55
2024/03/04 00:39:54;;;;;;;20.00;15.40;;;;;;;11.04;49.31;101708.24;109644;1255;1003034;-56
2024/03/04 00:42:25;;;;;;;24.60;15.40;;;;;;;11.00;49.44;101707.06;110423;1268;22911;-55
2024/03/04 00:44:53;;;;;;;22.70;15.30;;;;;;;10.97;49.52;101707.96;110411;1270;22126;-55
2024/03/04 00:47:21;;;;;;;21.40;15.50;;;;;;;10.94;49.73;101706.58;110486;1255;22342;-56
2024/03/04 00:49:50;;;;;;;21.00;14.10;;;;;;;10.92;49.86;101707.64;110447;1257;22290;-56
2024/03/04 00:52:19;;;;;;;20.30;14.70;;;;;;;10.89;50.05;101708.71;110461;1255;22394;-56
2024/03/04 00:54:47;;;;;;;18.10;13.30;;;;;;;10.86;50.14;101709.42;110082;1261;23068;-56
2024/03/04 00:57:14;;;;;;;19.60;14.60;;;;;;;10.84;50.25;101713.44;110446;1255;22397;-56
2024/03/04 00:59:42;;;;;;;23.40;15.30;;;;;;;10.81;50.51;101712.25;110277;1255;22156;-56
2024/03/04 01:02:11;;;;;;;26.90;15.80;;;;;;;10.79;50.68;101710.36;109738;1262;1002918;-56
2024/03/04 01:04:39;;;;;;;24.30;15.80;;;;;;;10.79;50.76;101713.83;110555;1252;23101;-56
2024/03/04 01:07:07;;;;;;;23.50;15.50;;;;;;;10.77;50.94;101716.45;110427;1260;23111;-56
2024/03/04 01:09:34;;;;;;;22.10;15.20;;;;;;;10.75;51.05;101714.38;110450;1257;22230;-56
2024/03/04 01:12:02;;;;;;;31.20;16.40;;;;;;;10.76;51.16;101714.73;110463;1255;22383;-57
2024/03/04 01:14:30;;;;;;;26.70;15.80;;;;;;;10.77;51.22;101714.54;110182;1261;23178;-56
2024/03/04 01:16:58;;;;;;;36.60;18.80;;;;;;;10.77;51.34;101712.27;110502;1255;22308;-56
2024/03/04 01:19:25;;;;;;;28.30;17.40;;;;;;;10.76;51.31;101714.54;110477;1256;22141;-56
2024/03/04 01:21:53;;;;;;;31.60;18.10;;;;;;;10.76;51.41;101717.49;110276;1255;22488;-56
2024/03/04 01:24:21;;;;;;;32.60;19.60;;;;;;;10.75;51.49;101716.28;110479;1255;22281;-56
2024/03/04 01:26:51;;;;;;;28.10;18.80;;;;;;;10.74;51.58;101721.66;110214;1267;22334;-56
2024/03/04 01:29:19;;;;;;;31.70;19.00;;;;;;;10.72;51.69;101717.88;110449;1257;22377;-56
2024/03/04 01:31:47;;;;;;;30.50;19.10;;;;;;;10.71;51.71;101718.22;110448;1254;22360;-57
2024/03/04 01:34:16;;;;;;;30.50;18.60;;;;;;;10.72;51.81;101717.68;110420;1257;22852;-56
2024/03/04 01:36:44;;;;;;;38.90;21.10;;;;;;;10.71;52.00;101721.17;110459;1255;22333;-56
2024/03/04 01:39:12;;;;;;;29.70;20.10;;;;;;;10.67;52.18;101725.38;110502;1257;22253;-56
2024/03/04 01:41:39;;;;;;;31.40;20.60;;;;;;;10.61;52.35;101725.58;110493;1256;22388;-56
2024/03/04 01:44:07;;;;;;;39.10;21.80;;;;;;;10.58;52.62;101728.02;110469;1256;22370;-56
2024/03/04 01:46:35;;;;;;;36.90;22.00;;;;;;;10.56;52.76;101727.52;110139;1262;22659;-56
2024/03/04 01:49:03;;;;;;;39.20;22.00;;;;;;;10.36;53.44;101726.25;110033;1278;22224;-56
2024/03/04 01:51:30;;;;;;;37.50;21.10;;;;;;;10.26;54.10;101732.02;110061;1262;22185;-56
2024/03/04 01:53:58;;;;;;;29.70;19.60;;;;;;;10.25;54.22;101731.69;110005;1262;22150;-56
2024/03/04 01:56:26;;;;;;;35.30;18.40;;;;;;;10.27;54.35;101729.23;110228;1271;22310;-57
2024/03/04 01:58:54;;;;;;;28.70;15.00;;;;;;;10.42;53.81;101732.98;109987;1264;23061;-57
2024/03/04 02:01:22;;;;;;;29.10;13.10;;;;;;;10.54;53.45;101736.21;109352;1278;1002430;-56
2024/03/04 02:03:50;;;;;;;30.50;13.10;;;;;;;10.57;53.31;101735.31;109400;1260;1002447;-56
2024/03/04 02:06:19;;;;;;;26.10;12.30;;;;;;;10.62;53.22;101737.38;109384;1275;1002198;-56
2024/03/04 02:08:47;;;;;;;27.00;13.00;;;;;;;10.66;53.22;101740.29;110040;1264;22895;-56
2024/03/04 02:11:14;;;;;;;28.80;12.00;;;;;;;10.66;53.33;101738.90;110208;1255;22315;-56
2024/03/04 02:13:42;;;;;;;23.60;11.50;;;;;;;10.66;53.30;101736.64;110203;1261;22169;-56
2024/03/04 02:16:10;;;;;;;36.70;11.70;;;;;;;10.67;53.42;101737.34;110122;1260;22397;-57
2024/03/04 02:18:38;;;;;;;25.10;12.10;;;;;;;10.67;53.30;101736.82;110471;1259;22308;-56
2024/03/04 02:21:05;;;;;;;23.30;12.00;;;;;;;10.66;53.37;101735.79;110473;1257;22104;-57
2024/03/04 02:23:33;;;;;;;31.70;11.30;;;;;;;10.64;53.51;101740.65;110443;1255;22300;-56
2024/03/04 02:26:00;;;;;;;24.00;11.30;;;;;;;10.64;53.57;101739.44;110470;1268;22150;-56
2024/03/04 02:28:29;;;;;;;27.90;12.00;;;;;;;10.64;53.62;101744.83;110498;1255;22162;-56
2024/03/04 02:30:58;;;;;;;31.60;11.80;;;;;;;10.64;53.59;101742.91;109708;1255;1002620;-56
2024/03/04 02:33:26;;;;;;;23.90;12.10;;;;;;;10.62;53.60;101743.09;110513;1256;22356;-56
2024/03/04 02:35:53;;;;;;;27.40;13.10;;;;;;;10.60;53.63;101741.38;110284;1258;22353;-56
2024/03/04 02:38:21;;;;;;;27.40;12.20;;;;;;;10.59;53.71;101742.08;110476;1255;22443;-56
2024/03/04 02:40:49;;;;;;;24.90;12.00;;;;;;;10.57;53.62;101744.17;109400;1276;1002537;-56
2024/03/04 02:43:18;;;;;;;31.10;12.10;;;;;;;10.56;53.62;101745.39;110111;1273;22153;-55
2024/03/04 02:45:46;;;;;;;27.70;12.00;;;;;;;10.54;53.43;101746.79;110278;1259;22400;-56
2024/03/04 02:48:13;;;;;;;23.90;11.50;;;;;;;10.51;53.45;101745.06;110261;1260;22177;-55
2024/03/04 02:50:41;;;;;;;24.60;12.00;;;;;;;10.49;53.29;101749.06;110445;1257;22342;-56
2024/03/04 02:53:09;;;;;;;32.60;12.00;;;;;;;10.45;53.23;101748.91;110455;1268;22413;-56
2024/03/04 02:55:37;;;;;;;28.90;13.20;;;;;;;10.42;53.26;101752.05;109734;1276;1002229;-55
2024/03/04 02:58:08;;;;;;;28.40;13.20;;;;;;;10.39;53.36;101752.59;110438;1275;22361;-56
2024/03/04 03:00:35;;;;;;;29.90;12.70;;;;;;;10.36;53.45;101757.46;109696;1269;1003358;-55
2024/03/04 03:03:03;;;;;;;26.70;14.50;;;;;;;10.34;53.47;101757.66;110496;1255;22912;-56
2024/03/04 03:05:31;;;;;;;32.50;13.90;;;;;;;10.33;53.52;101756.61;110177;1274;22344;-55
2024/03/04 03:07:59;;;;;;;27.80;13.60;;;;;;;10.32;53.47;101760.61;110487;1257;22100;-55
2024/03/04 03:10:28;;;;;;;30.90;13.40;;;;;;;10.31;53.59;101760.61;110511;1256;22105;-55
2024/03/04 03:12:56;;;;;;;33.80;15.10;;;;;;;10.33;53.50;101758.35;110472;1255;22108;-56
2024/03/04 03:15:24;;;;;;;31.10;13.10;;;;;;;10.33;53.49;101759.39;110443;1268;22369;-56
2024/03/04 03:17:52;;;;;;;29.10;13.40;;;;;;;10.33;53.50;101762.33;110495;1255;23189;-56
2024/03/04 03:20:20;;;;;;;34.90;13.40;;;;;;;10.34;53.33;101763.90;110463;1255;22224;-56
2024/03/04 03:22:48;;;;;;;32.20;13.60;;;;;;;10.34;53.28;101762.69;110505;1256;22128;-55
2024/03/04 03:25:16;;;;;;;30.90;13.40;;;;;;;10.33;53.19;101763.55;110331;1260;22870;-55
2024/03/04 03:27:44;;;;;;;29.00;12.90;;;;;;;10.32;53.30;101765.30;110270;1257;22156;-55
2024/03/04 03:30:12;;;;;;;26.10;13.90;;;;;;;10.32;53.37;101768.94;109699;1275;1002871;-55
2024/03/04 03:32:40;;;;;;;38.90;15.70;;;;;;;10.33;53.37;101770.48;110253;1260;22589;-55
2024/03/04 03:35:08;;;;;;;27.70;14.30;;;;;;;10.33;53.30;101768.58;110125;1274;22087;-56
2024/03/04 03:37:36;;;;;;;32.00;15.30;;;;;;;10.33;53.42;101768.58;110456;1257;22339;-55
2024/03/04 03:40:04;;;;;;;34.40;16.20;;;;;;;10.34;53.30;101769.45;110492;1256;22433;-55
2024/03/04 03:42:34;;;;;;;28.20;15.90;;;;;;;10.35;53.47;101769.27;110478;1258;22122;-56
2024/03/04 03:45:03;;;;;;;29.40;16.80;;;;;;;10.36;53.53;101765.95;109659;1257;1002357;-56
2024/03/04 03:47:31;;;;;;;34.60;17.70;;;;;;;10.36;53.36;101767.70;109673;1258;1002235;-55
2024/03/04 03:49:58;;;;;;;38.70;17.80;;;;;;;10.36;53.49;101767.88;109521;1256;1002548;-55
2024/03/04 03:52:26;;;;;;;36.10;16.70;;;;;;;10.37;53.59;101766.30;110487;1257;23066;-56
2024/03/04 03:54:53;;;;;;;33.20;19.40;;;;;;;10.41;53.50;101769.23;110439;1257;22376;-56
2024/03/04 03:57:21;;;;;;;37.20;19.30;;;;;;;10.44;53.37;101767.65;110501;1258;22370;-55
2024/03/04 03:59:49;;;;;;;36.10;17.90;;;;;;;10.44;53.23;101769.57;109761;1256;1002449;-55
2024/03/04 04:02:16;;;;;;;30.10;17.90;;;;;;;10.44;53.23;101766.63;110498;1256;22304;-55
2024/03/04 04:04:45;;;;;;;38.20;19.00;;;;;;;10.43;53.20;101774.08;110463;1258;22170;-56
2024/03/04 04:07:14;;;;;;;37.10;19.50;;;;;;;10.40;53.27;101772.36;110495;1256;22209;-55
2024/03/04 04:09:42;;;;;;;29.70;16.90;;;;;;;10.37;53.35;101778.61;110505;1256;22356;-56
2024/03/04 04:12:09;;;;;;;30.60;17.40;;;;;;;10.36;53.34;101781.05;110489;1269;23151;-56
2024/03/04 04:14:37;;;;;;;33.60;17.60;;;;;;;10.36;53.36;101780.18;110446;1257;22857;-56
2024/03/04 04:17:04;;;;;;;33.80;17.80;;;;;;;10.36;53.27;101778.63;109649;1276;1002209;-55
2024/03/04 04:19:34;;;;;;;36.90;18.50;;;;;;;10.34;53.43;101781.59;110450;1256;23106;-56
2024/03/04 04:22:02;;;;;;;40.60;19.40;;;;;;;10.34;53.43;101781.59;110141;1260;22281;-55
2024/03/04 04:24:29;;;;;;;38.90;18.70;;;;;;;10.32;53.39;101778.13;110560;1268;22942;-55
2024/03/04 04:26:57;;;;;;;36.60;18.10;;;;;;;10.32;53.41;101779.34;110502;1269;22220;-56
2024/03/04 04:29:25;;;;;;;34.10;17.50;;;;;;;10.32;53.35;101777.95;110519;1257;22362;-56
2024/03/04 04:31:54;;;;;;;39.20;18.80;;;;;;;10.30;53.25;101780.39;110478;1256;23237;-56
2024/03/04 04:34:22;;;;;;;34.60;17.00;;;;;;;10.28;53.33;101782.47;110368;1259;22396;-56
2024/03/04 04:36:50;;;;;;;35.60;17.20;;;;;;;10.28;53.23;101784.91;110464;1258;22885;-55
2024/03/04 04:39:18;;;;;;;37.50;17.90;;;;;;;10.28;53.28;101784.03;110464;1258;22426;-56
2024/03/04 04:41:45;;;;;;;37.30;17.20;;;;;;;10.28;53.32;101786.12;110565;1257;22144;-55
2024/03/04 04:44:13;;;;;;;33.40;17.40;;;;;;;10.28;53.37;101784.91;110456;1258;22386;-56
2024/03/04 04:46:41;;;;;;;32.80;17.40;;;;;;;10.28;53.35;101783.02;110217;1260;22432;-55
2024/03/04 04:49:09;;;;;;;31.70;16.40;;;;;;;10.27;53.32;101785.08;110543;1257;22354;-55
2024/03/04 04:51:37;;;;;;;31.80;16.90;;;;;;;10.28;53.26;101783.17;110160;1269;22404;-55
2024/03/04 04:54:05;;;;;;;32.30;15.30;;;;;;;10.30;53.20;101782.64;110534;1257;23016;-55
2024/03/04 04:56:33;;;;;;;25.00;14.20;;;;;;;10.32;53.18;101786.98;109660;1258;1002454;-56
2024/03/04 04:59:01;;;;;;;30.30;15.80;;;;;;;10.35;53.07;101785.05;109816;1253;1002505;-56
2024/03/04 05:01:28;;;;;;;27.80;14.60;;;;;;;10.38;52.91;101787.45;110528;1257;22394;-55
2024/03/04 05:03:56;;;;;;;37.50;15.50;;;;;;;10.41;52.61;101783.11;109757;1256;1002277;-55
2024/03/04 05:06:27;;;;;;;30.20;14.70;;;;;;;10.43;52.37;101784.31;110485;1258;22355;-56
2024/03/04 05:08:54;;;;;;;28.50;14.20;;;;;;;10.46;52.27;101788.29;110436;1258;22588;-55
2024/03/04 05:11:22;;;;;;;30.40;14.40;;;;;;;10.48;52.16;101788.09;110543;1253;22120;-55
2024/03/04 05:13:50;;;;;;;27.00;13.60;;;;;;;10.49;52.02;101784.80;109450;1262;1002688;-55
2024/03/04 05:16:18;;;;;;;32.70;14.60;;;;;;;10.49;51.80;101785.14;109451;1261;1002370;-55
2024/03/04 05:18:45;;;;;;;29.50;15.40;;;;;;;10.48;51.69;101782.90;109814;1258;1002973;-55
2024/03/04 05:21:13;;;;;;;32.90;16.10;;;;;;;10.45;51.69;101785.00;109752;1258;1002128;-55
2024/03/04 05:23:41;;;;;;;29.20;15.20;;;;;;;10.41;51.70;101786.59;110499;1253;22597;-55
2024/03/04 05:26:08;;;;;;;33.60;15.40;;;;;;;10.39;51.69;101786.94;110545;1256;23119;-55
2024/03/04 05:28:36;;;;;;;32.50;16.50;;;;;;;10.37;51.72;101788.17;110506;1258;22182;-55
2024/03/04 05:31:04;;;;;;;32.00;16.50;;;;;;;10.35;51.77;101788.52;110209;1260;22121;-55
2024/03/04 05:33:31;;;;;;;33.10;16.30;;;;;;;10.36;51.77;101791.64;109468;1268;1002459;-55
2024/03/04 05:36:04;;;;;;;30.10;16.10;;;;;;;10.36;51.99;101789.73;110534;1256;22359;-55
2024/03/04 05:38:32;;;;;;;32.10;16.00;;;;;;;10.38;51.90;101790.23;110500;1254;22153;-55
2024/03/04 05:40:59;;;;;;;24.10;14.60;;;;;;;10.40;51.98;101791.09;110524;1275;22324;-55
2024/03/04 05:43:27;;;;;;;38.40;14.50;;;;;;;10.43;51.90;101791.27;110443;1260;22859;-55
2024/03/04 05:45:55;;;;;;;24.20;14.90;;;;;;;10.42;51.85;101791.10;110505;1257;22601;-55
2024/03/04 05:48:22;;;;;;;31.10;15.10;;;;;;;10.44;52.05;101798.54;110206;1262;23099;-55
2024/03/04 05:50:50;;;;;;;28.60;15.00;;;;;;;10.46;51.99;101800.27;110573;1256;22795;-55
2024/03/04 05:53:20;;;;;;;27.70;15.20;;;;;;;10.48;51.98;101798.34;110311;1257;22240;-55
2024/03/04 05:55:48;;;;;;;26.10;14.50;;;;;;;10.49;52.13;101800.08;110454;1255;22191;-55
2024/03/04 05:58:15;;;;;;;28.50;14.00;;;;;;;10.50;52.07;101799.90;110585;1257;22113;-55
2024/03/04 06:00:43;;;;;;;29.10;14.80;;;;;;;10.49;51.91;101799.71;110491;1258;22242;-55
2024/03/04 06:03:11;;;;;;;27.10;15.30;;;;;;;10.49;51.96;101802.48;109690;1257;1002435;-55
2024/03/04 06:05:39;;;;;;;19.00;13.40;;;;;;;10.51;51.87;101798.15;110475;1270;22126;-55
2024/03/04 06:08:06;;;;;;;24.20;14.80;;;;;;;10.52;51.75;101797.98;110442;1275;22822;-55
2024/03/04 06:10:36;;;;;;;25.10;13.50;;;;;;;10.51;51.76;101794.33;110500;1255;22189;-55
2024/03/04 06:13:04;;;;;;;21.40;14.30;;;;;;;10.52;51.76;101794.17;109716;1257;1002200;-55
2024/03/04 06:15:31;;;;;;;23.50;14.30;;;;;;;10.55;51.77;101795.18;110546;1257;22203;-54
2024/03/04 06:17:59;;;;;;;20.80;12.70;;;;;;;10.63;51.81;101789.77;110516;1258;22301;-55
2024/03/04 06:20:26;;;;;;;28.90;14.70;;;;;;;10.79;51.85;101790.88;110544;1257;22419;-55
2024/03/04 06:22:54;;;;;;;19.10;13.00;;;;;;;10.98;51.46;101790.23;109794;1259;1003031;-55
2024/03/04 06:25:22;;;;;;;19.80;12.90;;;;;;;11.18;51.24;101795.46;110491;1256;22396;-55
2024/03/04 06:27:49;;;;;;;19.90;12.60;;;;;;;11.34;50.69;101793.77;110469;1257;22400;-54
2024/03/04 06:30:18;;;;;;;19.10;12.50;;;;;;;11.51;50.50;101794.33;110502;1257;22408;-55
2024/03/04 06:32:45;;;;;;;19.00;12.30;;;;;;;11.66;50.06;101797.15;110478;1257;22794;-55
2024/03/04 06:35:13;;;;;;;14.20;10.50;;;;;;;11.80;50.01;101795.30;110474;1258;22154;-55
2024/03/04 06:37:41;;;;;;;17.90;10.60;;;;;;;11.92;49.53;101791.85;110470;1258;22209;-55
2024/03/04 06:40:09;;;;;;;16.70;10.80;;;;;;;12.01;49.07;101795.05;110557;1257;23085;-55
2024/03/04 06:42:37;;;;;;;16.10;11.00;;;;;;;12.09;49.05;101794.45;110473;1258;22822;-55
2024/03/04 06:45:05;;;;;;;16.10;10.60;;;;;;;12.20;48.86;101798.66;109466;1257;1002490;-55
2024/03/04 06:47:33;;;;;;;13.50;10.30;;;;;;;12.32;48.56;101799.05;110573;1256;22133;-55
2024/03/04 06:50:01;;;;;;;14.60;9.60;;;;;;;12.40;48.51;101800.50;110462;1258;22404;-54
2024/03/04 06:52:29;;;;;;;14.20;9.50;;;;;;;12.46;48.38;101799.39;110520;1272;22277;-55
2024/03/04 06:54:56;;;;;;;15.00;9.40;;;;;;;12.53;48.46;101799.28;110508;1258;22352;-52
2024/03/04 06:57:24;;;;;;;13.40;9.40;;;;;;;12.63;48.38;101800.90;110558;1256;22438;-52
2024/03/04 06:59:52;;;;;;;15.00;9.90;;;;;;;12.71;47.91;101799.94;110482;1258;22298;-52
2024/03/04 07:02:20;;;;;;;11.60;9.70;;;;;;;12.74;47.38;101805.27;110466;1258;22145;-52
2024/03/04 07:04:48;;;;;;;11.30;9.30;;;;;;;12.77;47.28;101805.77;110507;1258;22183;-52
2024/03/04 07:07:15;;;;;;;12.10;9.60;;;;;;;12.77;47.18;101805.75;110506;1259;22332;-52
2024/03/04 07:09:43;;;;;;;14.10;9.80;;;;;;;12.81;47.18;101803.77;110220;1259;22302;-52
2024/03/04 07:12:11;;;;;;;14.70;10.10;;;;;;;12.90;47.16;101801.55;110442;1258;22199;-52
2024/03/04 07:14:38;;;;;;;12.00;9.50;;;;;;;12.99;46.79;101799.84;110538;1258;22354;-55
2024/03/04 07:17:06;;;;;;;11.40;10.20;;;;;;;13.02;46.51;101802.92;110218;1260;22286;-55
2024/03/04 07:19:33;;;;;;;17.20;9.90;;;;;;;13.06;46.31;101805.86;110533;1269;22158;-55
2024/03/04 07:22:01;;;;;;;13.50;9.80;;;;;;;13.04;46.10;101806.59;110505;1256;22350;-55
2024/03/04 07:24:29;;;;;;;10.80;9.50;;;;;;;13.02;45.96;101804.85;109712;1258;1002959;-55
2024/03/04 07:26:57;;;;;;;13.20;9.30;;;;;;;12.99;45.99;101802.99;110249;1260;22157;-55
2024/03/04 07:29:24;;;;;;;11.30;9.30;;;;;;;12.92;46.18;101807.09;110217;1260;22332;-55
2024/03/04 07:32:05;;;;;;;11.90;9.70;;;;;;;12.83;46.25;101802.00;110286;1268;350320;-55
2024/03/04 07:34:33;;;;;;;10.60;9.00;;;;;;;12.76;46.35;101802.81;110473;1267;22362;-55
2024/03/04 07:37:00;;;;;;;14.30;9.30;;;;;;;12.69;46.26;101807.44;109753;1276;1002246;-52
2024/03/04 07:39:28;;;;;;;14.10;9.40;;;;;;;12.65;46.52;101808.54;109749;1271;1002410;-53
2024/03/04 07:41:56;;;;;;;12.40;9.20;;;;;;;12.62;46.86;101813.27;109680;1275;1002763;-55
2024/03/04 07:44:24;;;;;;;14.00;10.20;;;;;;;12.62;46.83;101811.70;110494;1258;22276;-54
2024/03/04 07:46:51;;;;;;;16.30;9.70;;;;;;;12.60;46.79;101812.94;110445;1274;22918;-55
2024/03/04 07:49:19;;;;;;;11.80;9.60;;;;;;;12.58;46.89;101816.29;110228;1259;22487;-55
2024/03/04 07:51:47;;;;;;;10.10;8.70;;;;;;;12.57;47.06;101817.86;109764;1272;1002326;-55
2024/03/04 07:54:15;;;;;;;13.90;9.10;;;;;;;12.55;47.06;101820.67;109485;1269;1002254;-55
2024/03/04 07:56:42;;;;;;;14.90;9.30;;;;;;;12.56;47.12;101821.88;110504;1273;22848;-55
2024/03/04 07:59:10;;;;;;;11.30;9.20;;;;;;;12.59;47.26;101824.44;110508;1258;22153;-55
2024/03/04 08:01:50;;;;;;;13.50;9.70;;;;;;;12.62;47.16;101830.33;110192;1275;22139;-55
2024/03/04 08:04:19;;;;;;;14.10;9.30;;;;;;;12.64;47.12;101826.81;110565;1275;22262;-55
2024/03/04 08:06:48;;;;;;;11.70;9.40;;;;;;;12.62;46.98;101827.71;110521;1269;22354;-55
2024/03/04 08:09:15;;;;;;;11.40;9.30;;;;;;;12.59;47.13;101832.63;110526;1268;22280;-55
2024/03/04 08:11:43;;;;;;;12.60;9.60;;;;;;;12.59;47.24;101830.88;109399;1275;1002258;-55
2024/03/04 08:14:10;;;;;;;16.10;10.10;;;;;;;12.61;47.21;101827.91;109677;1257;1003073;-55
2024/03/04 08:16:42;;;;;;;11.60;9.10;;;;;;;12.61;47.22;101825.46;110476;1269;22109;-55
2024/03/04 08:19:11;;;;;;;11.00;9.30;;;;;;;12.62;47.20;101821.80;110489;1269;22096;-55
2024/03/04 08:21:39;;;;;;;14.30;10.10;;;;;;;12.62;46.99;101825.45;110403;1272;22408;-55
2024/03/04 08:24:07;;;;;;;12.80;9.60;;;;;;;12.62;47.20;101831.73;110517;1268;22130;-55
2024/03/04 08:26:35;;;;;;;12.50;9.70;;;;;;;12.62;47.21;101834.68;109475;1269;1002220;-54
2024/03/04 08:29:02;;;;;;;15.50;10.60;;;;;;;12.62;47.24;101829.80;109761;1261;1003010;-55
2024/03/04 08:31:31;;;;;;;12.60;9.70;;;;;;;12.61;47.25;101834.16;109700;1269;1002486;-55
2024/03/04 08:33:59;;;;;;;14.10;10.40;;;;;;;12.58;47.29;101831.07;110220;1273;22406;-55
2024/03/04 08:36:27;;;;;;;13.90;9.90;;;;;;;12.57;47.41;101828.65;110472;1270;22110;-55
2024/03/04 08:38:55;;;;;;;13.30;9.90;;;;;;;12.58;47.81;101826.36;110232;1275;22355;-55
2024/03/04 08:41:24;;;;;;;14.10;10.20;;;;;;;12.67;47.95;101823.81;110306;1275;22259;-55
2024/03/04 08:43:51;;;;;;;13.20;9.70;;;;;;;12.77;47.72;101818.98;110239;1269;22114;-55
2024/03/04 08:46:19;;;;;;;10.50;9.20;;;;;;;12.85;47.45;101816.95;110535;1275;23159;-55
2024/03/04 08:48:47;;;;;;;15.30;10.60;;;;;;;12.94;47.50;101816.65;110236;1274;22103;-55
2024/03/04 08:51:17;;;;;;;12.30;9.30;;;;;;;13.02;47.30;101817.05;110421;1276;22293;-55
2024/03/04 08:53:45;;;;;;;12.30;9.80;;;;;;;13.10;47.01;101817.66;110251;1276;22142;-53
2024/03/04 08:56:13;;;;;;;13.10;10.20;;;;;;;13.16;46.88;101818.98;110255;1273;22129;-53
2024/03/04 08:58:42;;;;;;;11.70;9.20;;;;;;;13.21;46.86;101815.06;109665;1269;1002105;-52
2024/03/04 09:01:10;;;;;;;14.50;10.70;;;;;;;13.26;46.52;101815.50;110465;1273;22097;-52
2024/03/04 09:03:41;;;;;;;33.90;22.20;;;;;;;13.25;46.61;101818.13;110524;1274;23035;-55
2024/03/04 09:06:18;;;;;;;27.90;20.20;;;;;;;13.27;46.68;101819.66;110420;1274;22324;-55
2024/03/04 09:08:47;;;;;;;22.00;14.10;;;;;;;13.29;46.31;101822.58;110450;1275;23082;-52
2024/03/04 09:11:15;;;;;;;14.70;12.70;;;;;;;13.23;46.06;101827.05;109459;1275;1002481;-53
2024/03/04 09:13:43;;;;;;;21.00;14.40;;;;;;;13.16;46.39;101825.25;109472;1274;1002349;-52
2024/03/04 09:16:12;;;;;;;15.80;12.90;;;;;;;13.14;46.51;101827.02;110490;1269;22847;-52
2024/03/04 09:18:40;;;;;;;17.30;12.30;;;;;;;13.09;46.68;101824.98;110446;1275;22225;-52
2024/03/04 09:21:08;;;;;;;16.20;11.20;;;;;;;13.16;46.52;101825.25;110459;1275;22229;-53
2024/03/04 09:23:38;;;;;;;17.50;12.80;;;;;;;13.17;46.46;101830.11;110456;1276;22835;-52
2024/03/04 09:26:11;;;;;;;17.50;12.00;;;;;;;13.18;46.58;101822.94;110514;1275;22096;-52
2024/03/04 09:28:39;;;;;;;15.10;12.00;;;;;;;13.21;46.65;101824.45;109667;1275;1002407;-52
2024/03/04 09:31:06;;;;;;;15.20;10.90;;;;;;;13.25;46.63;101822.67;109670;1275;1002211;-52
2024/03/04 09:33:34;;;;;;;14.80;10.60;;;;;;;13.27;46.41;101819.32;110439;1275;22110;-52
2024/03/04 09:36:02;;;;;;;13.00;10.90;;;;;;;13.24;46.32;101822.48;110456;1275;22272;-53
2024/03/04 09:38:30;;;;;;;13.90;11.10;;;;;;;13.23;46.23;101825.48;110197;1275;22870;-52
2024/03/04 09:40:59;;;;;;;12.10;10.80;;;;;;;13.20;46.28;101826.39;110053;1276;23011;-52
2024/03/04 09:43:28;;;;;;;12.70;11.10;;;;;;;13.20;46.40;101829.70;110276;1274;22209;-55
2024/03/04 09:45:57;;;;;;;14.70;10.60;;;;;;;13.23;46.61;101821.65;110527;1274;22136;-55
2024/03/04 09:48:27;;;;;;;12.50;10.50;;;;;;;13.30;46.43;101820.14;110139;1276;22373;-55
2024/03/04 09:50:55;;;;;;;16.30;10.50;;;;;;;13.34;46.26;101819.73;110003;1277;23096;-55
2024/03/04 09:53:22;;;;;;;14.10;11.10;;;;;;;13.39;46.38;101815.12;110139;1274;22374;-55
2024/03/04 09:55:50;;;;;;;15.40;11.70;;;;;;;13.43;46.01;101814.86;110151;1277;23579;-55
2024/03/04 09:58:18;;;;;;;11.90;9.70;;;;;;;13.45;45.96;101814.13;110145;1278;22120;-55
2024/03/04 10:00:46;;;;;;;15.00;10.60;;;;;;;13.49;45.96;101815.80;110110;1278;22154;-55
2024/03/04 10:03:13;;;;;;;14.10;10.60;;;;;;;13.55;45.90;101816.05;109341;1278;1002868;-55
2024/03/04 10:05:42;;;;;;;12.10;10.40;;;;;;;13.63;45.71;101817.84;109247;1278;1002337;-55
2024/03/04 10:08:09;;;;;;;12.80;9.70;;;;;;;13.69;45.65;101821.39;110154;1275;22316;-52
2024/03/04 10:10:37;;;;;;;14.50;11.50;;;;;;;13.72;45.50;101825.16;109380;1274;1002374;-52
2024/03/04 10:13:10;;;;;;;15.10;10.70;;;;;;;13.76;45.53;101825.61;110172;1274;22415;-52
2024/03/04 10:15:38;;;;;;;15.30;10.40;;;;;;;13.75;45.16;101821.29;109407;1278;1002507;-52
2024/03/04 10:18:10;;;;;;;14.10;11.10;;;;;;;13.70;45.06;101823.46;110188;1270;22381;-52
2024/03/04 10:20:38;;;;;;;13.70;10.20;;;;;;;13.66;45.28;101819.18;110328;1276;22175;-52
2024/03/04 10:23:06;;;;;;;15.60;11.60;;;;;;;13.66;45.49;101816.04;110438;1275;23131;-52
2024/03/04 10:25:34;;;;;;;14.70;11.00;;;;;;;13.70;45.57;101812.48;110436;1270;22257;-52
2024/03/04 10:28:02;;;;;;;13.10;10.50;;;;;;;13.80;45.36;101815.60;110139;1276;22123;-52
2024/03/04 10:30:30;;;;;;;16.50;11.60;;;;;;;13.86;45.37;101810.61;110331;1275;22965;-52
2024/03/04 10:33:00;;;;;;;14.00;10.70;;;;;;;13.92;45.31;101804.56;110214;1273;22754;-52
2024/03/04 10:35:28;;;;;;;13.20;10.30;;;;;;;13.98;45.18;101803.77;110469;1272;22376;-55
2024/03/04 10:37:59;;;;;;;12.70;10.50;;;;;;;14.08;44.97;101802.35;109665;1269;1002755;-55
2024/03/04 10:40:27;;;;;;;21.90;17.40;;;;;;;14.09;44.81;101796.56;110521;1269;22920;-52
2024/03/04 10:43:00;;;;;;;16.10;11.70;;;;;;;14.10;44.69;101794.79;110442;1275;22175;-52
2024/03/04 10:45:32;;;;;;;13.50;11.00;;;;;;;14.14;44.62;101795.59;110598;1269;22289;-52
2024/03/04 10:48:03;;;;;;;13.50;10.50;;;;;;;14.16;44.60;101798.88;110214;1275;22407;-52
2024/03/04 10:50:31;;;;;;;14.30;9.70;;;;;;;14.18;44.60;101799.70;109405;1276;1002105;-53
2024/03/04 10:52:59;;;;;;;14.80;10.40;;;;;;;14.22;44.39;101794.55;109674;1275;1002934;-52
2024/03/04 10:55:31;;;;;;;13.40;9.30;;;;;;;14.26;44.31;101797.95;110446;1272;22952;-53
2024/03/04 10:58:01;;;;;;;14.10;9.10;;;;;;;14.28;44.25;101796.55;110514;1268;23118;-52
2024/03/04 11:00:31;;;;;;;10.80;9.50;;;;;;;14.29;43.93;101799.67;110411;1270;22273;-53
2024/03/04 11:02:59;;;;;;;14.00;9.30;;;;;;;14.33;43.84;101800.29;109733;1270;1002468;-52